Time;durP1;ratioP1;P1;durP2;ratioP2;P2;SDS_P1;SDS_P2;PMS_P1;PMS_P2;Temp;Humidity;BMP_temperature;BMP_pressure;BME280_temperature;BME280_humidity;BME280_pressure;Samples;Min_cycle;Max_cycle;Signal;HPM_P1;HPM_P2
2021/05/30 00:01:06;;;;;;;0.20;0.20;;;17.80;70.10;;;;;;4992886;28;20026;-81
2021/05/30 00:03:34;;;;;;;0.20;0.10;;;18.80;68.30;;;;;;4990804;28;20026;-81
2021/05/30 00:06:02;;;;;;;2.00;0.20;;;19.60;64.90;;;;;;4991318;28;20052;-79
2021/05/30 00:08:29;;;;;;;1.40;0.20;;;19.20;65.90;;;;;;4991061;28;20022;-78
2021/05/30 00:10:57;;;;;;;1.02;0.20;;;19.20;67.70;;;;;;4990553;28;20077;-79
2021/05/30 00:13:25;;;;;;;2.70;0.55;;;18.80;68.60;;;;;;4990838;28;20484;-80
2021/05/30 00:15:58;;;;;;;1.73;0.20;;;18.40;69.00;;;;;;4991282;28;20377;-79
2021/05/30 00:18:25;;;;;;;1.40;0.28;;;18.10;68.40;;;;;;4989086;28;20031;-81
2021/05/30 00:20:53;;;;;;;0.55;0.17;;;17.90;69.70;;;;;;4989493;28;20042;-77
2021/05/30 00:23:20;;;;;;;0.85;0.20;;;18.40;68.90;;;;;;4989388;28;20030;-78
2021/05/30 00:25:48;;;;;;;1.58;0.20;;;19.00;68.20;;;;;;4991070;28;20034;-81
2021/05/30 00:28:15;;;;;;;1.27;0.30;;;20.10;65.60;;;;;;4991913;28;20022;-78
2021/05/30 00:30:43;;;;;;;0.70;0.20;;;20.00;65.40;;;;;;4990558;28;20556;-78
2021/05/30 00:33:14;;;;;;;1.08;0.30;;;19.70;65.30;;;;;;4971328;28;20442;-79
2021/05/30 00:35:42;;;;;;;0.90;0.10;;;19.20;66.50;;;;;;4990656;28;20030;-79
2021/05/30 00:38:10;;;;;;;1.25;0.30;;;19.40;68.80;;;;;;4989870;28;20029;-78
2021/05/30 00:40:37;;;;;;;0.40;0.20;;;19.70;66.40;;;;;;4994378;28;20030;-78
2021/05/30 00:43:05;;;;;;;1.58;0.20;;;20.00;65.60;;;;;;4986192;28;20038;-82
2021/05/30 00:45:33;;;;;;;0.10;0.10;;;19.80;64.60;;;;;;4986254;28;22152;-78
2021/05/30 00:48:00;;;;;;;0.20;0.10;;;19.80;65.00;;;;;;4993753;28;20023;-84
2021/05/30 00:50:28;;;;;;;0.55;0.20;;;20.10;64.70;;;;;;4990022;28;20726;-81
2021/05/30 00:52:55;;;;;;;2.00;0.20;;;20.60;64.90;;;;;;4992108;28;20034;-81
2021/05/30 00:55:25;;;;;;;1.75;0.15;;;21.00;62.90;;;;;;4990170;28;20358;-84
2021/05/30 00:57:52;;;;;;;0.20;0.10;;;21.30;61.40;;;;;;4985152;28;20030;-83
2021/05/30 01:00:20;;;;;;;1.23;0.10;;;20.70;62.60;;;;;;4990268;28;20045;-79
2021/05/30 01:02:48;;;;;;;0.45;0.10;;;19.90;64.60;;;;;;4985898;28;20088;-82
2021/05/30 01:05:15;;;;;;;0.43;0.38;;;19.40;66.70;;;;;;4988409;28;20030;-81
2021/05/30 01:07:46;;;;;;;0.28;0.10;;;19.60;67.30;;;;;;4981082;28;20042;-80
2021/05/30 01:10:25;;;;;;;0.45;0.20;;;19.40;66.80;;;;;;4982902;28;20077;-79
2021/05/30 01:12:53;;;;;;;0.65;0.10;;;19.20;66.00;;;;;;4985779;28;20030;-80
2021/05/30 01:15:21;;;;;;;0.40;0.10;;;18.70;66.60;;;;;;4974419;28;20022;-83
2021/05/30 01:17:51;;;;;;;1.27;0.30;;;19.00;67.60;;;;;;4994501;28;20030;-83
2021/05/30 01:20:20;;;;;;;0.80;0.20;;;20.30;63.50;;;;;;4996810;28;20117;-82
2021/05/30 01:22:48;;;;;;;2.08;0.13;;;20.90;63.80;;;;;;4996372;28;20033;-79
2021/05/30 01:25:19;;;;;;;0.82;0.38;;;21.00;65.20;;;;;;4992332;28;20082;-80
2021/05/30 01:27:51;;;;;;;1.75;0.25;;;20.40;63.90;;;;;;4984172;28;20185;-77
2021/05/30 01:30:20;;;;;;;0.30;0.10;;;19.80;64.70;;;;;;4983708;28;20750;-76
2021/05/30 01:32:49;;;;;;;1.27;0.20;;;19.20;65.00;;;;;;4984222;28;20042;-81
2021/05/30 01:35:17;;;;;;;1.30;0.20;;;18.70;66.50;;;;;;4987135;28;20034;-78
2021/05/30 01:37:46;;;;;;;0.25;0.13;;;18.50;67.60;;;;;;4989878;28;20026;-85
2021/05/30 01:40:14;;;;;;;2.45;0.22;;;18.40;67.80;;;;;;4995884;28;20057;-78
2021/05/30 01:42:41;;;;;;;0.30;0.20;;;18.10;68.40;;;;;;4998136;28;20358;-79
2021/05/30 01:45:10;;;;;;;0.20;0.10;;;18.00;69.10;;;;;;5001647;28;20100;-82
2021/05/30 01:47:39;;;;;;;0.52;0.08;;;17.80;69.20;;;;;;5007440;28;20018;-80
2021/05/30 01:50:12;;;;;;;0.50;0.10;;;17.70;69.00;;;;;;5007157;28;20097;-79
2021/05/30 01:52:40;;;;;;;0.90;0.20;;;17.80;70.00;;;;;;5014601;28;20030;-77
2021/05/30 01:55:17;;;;;;;2.83;0.32;;;17.90;69.40;;;;;;5010704;28;20503;-77
2021/05/30 02:00:35;;;;;;;0.98;0.13;;;18.00;70.20;;;;;;5271304;23;20055;-67
2021/05/30 02:03:04;;;;;;;0.73;0.15;;;18.20;69.10;;;;;;4940343;28;20047;-67
2021/05/30 02:05:32;;;;;;;0.73;0.20;;;18.10;70.40;;;;;;4948168;29;20116;-68
2021/05/30 02:08:00;;;;;;;3.83;0.82;;;18.10;71.30;;;;;;4946855;28;20035;-66
2021/05/30 02:10:28;;;;;;;0.50;0.30;;;18.20;70.20;;;;;;4945168;29;20068;-69
2021/05/30 02:12:57;;;;;;;2.70;0.20;;;18.30;70.50;;;;;;4944275;29;20050;-69
2021/05/30 02:15:24;;;;;;;1.25;0.50;;;18.50;69.90;;;;;;4946788;29;20039;-68
2021/05/30 02:17:52;;;;;;;2.72;0.40;;;18.60;69.50;;;;;;4943673;28;20087;-69
2021/05/30 02:20:36;;;;;;;0.95;0.20;;;18.40;70.60;;;;;;4944143;28;20041;-67
2021/05/30 02:23:05;;;;;;;0.38;0.30;;;18.60;70.10;;;;;;4943140;28;20085;-68
2021/05/30 02:25:33;;;;;;;0.90;0.20;;;19.40;68.60;;;;;;4945734;28;20023;-70
2021/05/30 02:28:00;;;;;;;1.35;0.98;;;19.20;67.90;;;;;;4941050;28;20366;-68
2021/05/30 02:30:28;;;;;;;2.15;0.25;;;19.10;68.10;;;;;;4944641;29;20496;-69
2021/05/30 02:32:56;;;;;;;0.70;0.50;;;19.40;69.50;;;;;;4928523;29;20053;-68
2021/05/30 02:35:24;;;;;;;1.42;0.75;;;20.60;66.20;;;;;;4947176;28;20093;-68
2021/05/30 02:37:51;;;;;;;0.85;0.73;;;20.60;66.10;;;;;;4926924;29;20132;-68
2021/05/30 02:40:19;;;;;;;0.75;0.30;;;20.80;65.60;;;;;;4946221;29;20046;-69
2021/05/30 02:42:46;;;;;;;0.98;0.30;;;20.40;66.60;;;;;;4943160;29;20035;-68
2021/05/30 02:45:14;;;;;;;1.45;0.30;;;20.60;65.20;;;;;;4944227;28;20682;-68
2021/05/30 02:47:42;;;;;;;1.00;0.25;;;20.60;64.80;;;;;;4946952;29;20093;-67
2021/05/30 02:50:09;;;;;;;1.48;0.50;;;20.30;65.00;;;;;;4941239;28;20023;-68
2021/05/30 02:52:37;;;;;;;1.38;0.30;;;20.60;65.90;;;;;;4930176;29;20688;-68
2021/05/30 02:55:05;;;;;;;1.20;0.22;;;20.40;66.10;;;;;;4947306;28;20048;-68
2021/05/30 02:57:33;;;;;;;0.60;0.30;;;20.10;66.50;;;;;;4944596;28;20031;-68
2021/05/30 03:00:00;;;;;;;0.13;0.10;;;19.90;67.40;;;;;;4929893;29;20059;-69
2021/05/30 03:02:28;;;;;;;0.60;0.30;;;19.50;69.10;;;;;;4943995;29;20019;-70
2021/05/30 03:04:55;;;;;;;2.35;0.52;;;19.20;69.60;;;;;;4922677;29;20036;-68
2021/05/30 03:07:22;;;;;;;1.75;0.20;;;19.20;69.10;;;;;;4943378;29;20050;-69
2021/05/30 03:09:50;;;;;;;3.92;0.47;;;19.10;71.60;;;;;;4946319;28;20366;-68
2021/05/30 03:12:17;;;;;;;1.38;0.20;;;19.00;71.40;;;;;;4944154;29;20034;-68
2021/05/30 03:14:45;;;;;;;1.20;0.35;;;18.60;71.00;;;;;;4942041;28;21073;-68
2021/05/30 03:17:12;;;;;;;0.98;0.25;;;18.40;72.50;;;;;;4945142;29;20031;-69
2021/05/30 03:19:39;;;;;;;1.13;0.40;;;18.50;71.40;;;;;;4944706;28;20532;-68
2021/05/30 03:22:07;;;;;;;0.40;0.10;;;18.50;71.50;;;;;;4943991;29;20051;-69
2021/05/30 03:24:35;;;;;;;1.05;0.38;;;18.60;71.40;;;;;;4944364;28;20069;-69
2021/05/30 03:27:03;;;;;;;0.50;0.30;;;18.50;71.90;;;;;;4944399;29;20034;-68
2021/05/30 03:29:30;;;;;;;2.80;0.43;;;18.40;72.10;;;;;;4941125;29;20034;-67
2021/05/30 03:31:57;;;;;;;1.50;0.55;;;18.40;72.70;;;;;;4944874;29;20027;-69
2021/05/30 03:34:25;;;;;;;1.08;0.30;;;18.40;73.00;;;;;;4941186;28;20031;-67
2021/05/30 03:36:56;;;;;;;0.47;0.20;;;18.50;72.00;;;;;;4923599;29;20377;-69
2021/05/30 03:39:25;;;;;;;1.73;0.30;;;18.50;72.50;;;;;;4939918;28;20471;-68
2021/05/30 03:41:55;;;;;;;1.88;0.20;;;18.60;71.80;;;;;;4944151;28;20486;-68
2021/05/30 03:44:23;;;;;;;1.20;0.20;;;18.70;71.50;;;;;;4942063;28;20058;-68
2021/05/30 03:46:50;;;;;;;1.65;0.13;;;18.80;70.40;;;;;;4945191;29;20161;-67
2021/05/30 03:49:18;;;;;;;1.20;0.20;;;18.90;70.10;;;;;;4948014;28;20552;-68
2021/05/30 03:51:45;;;;;;;1.10;0.30;;;19.10;71.20;;;;;;4945507;28;20031;-69
2021/05/30 03:54:12;;;;;;;5.05;0.55;;;19.00;70.90;;;;;;4941079;29;20375;-70
2021/05/30 03:56:40;;;;;;;1.02;0.43;;;19.00;70.10;;;;;;4945696;29;20027;-70
2021/05/30 03:59:07;;;;;;;1.27;0.20;;;18.60;71.90;;;;;;4943114;28;20065;-72
2021/05/30 04:01:37;;;;;;;1.10;0.30;;;18.60;71.10;;;;;;4927415;29;20370;-70
2021/05/30 04:04:05;;;;;;;2.47;0.30;;;18.60;72.20;;;;;;4942722;28;20026;-71
2021/05/30 04:06:32;;;;;;;0.40;0.25;;;18.40;71.20;;;;;;4942382;29;20708;-71
2021/05/30 04:08:59;;;;;;;8.77;0.88;;;18.40;72.00;;;;;;4943071;28;20081;-69
2021/05/30 04:11:27;;;;;;;2.50;0.40;;;18.40;71.20;;;;;;4943317;28;20122;-69
2021/05/30 04:13:54;;;;;;;3.33;0.60;;;18.20;72.20;;;;;;4946584;29;20397;-71
2021/05/30 04:16:22;;;;;;;1.80;0.57;;;17.90;73.50;;;;;;4941692;28;20504;-71
2021/05/30 04:18:49;;;;;;;1.40;0.32;;;17.90;73.50;;;;;;4944333;28;20036;-68
2021/05/30 04:21:19;;;;;;;1.33;0.30;;;17.80;72.60;;;;;;4943071;29;20046;-68
2021/05/30 04:23:47;;;;;;;3.88;0.40;;;17.60;73.00;;;;;;4946627;28;20105;-69
2021/05/30 04:26:14;;;;;;;1.05;0.20;;;17.40;73.80;;;;;;4941870;29;20035;-69
2021/05/30 04:28:42;;;;;;;0.45;0.30;;;17.40;73.30;;;;;;4945669;29;20051;-69
2021/05/30 04:31:09;;;;;;;0.28;0.10;;;17.40;73.30;;;;;;4947144;29;20031;-70
2021/05/30 04:33:36;;;;;;;1.05;0.30;;;17.60;72.30;;;;;;4945989;28;20039;-69
2021/05/30 04:36:04;;;;;;;0.43;0.40;;;17.70;72.10;;;;;;4943153;29;20031;-70
2021/05/30 04:38:32;;;;;;;0.75;0.20;;;17.90;71.80;;;;;;4949102;28;20030;-70
2021/05/30 04:41:00;;;;;;;0.95;0.50;;;17.90;71.40;;;;;;4945806;29;20576;-71
2021/05/30 04:43:28;;;;;;;1.15;0.20;;;17.90;71.50;;;;;;4950883;29;20114;-71
2021/05/30 04:45:55;;;;;;;0.80;0.30;;;17.90;71.50;;;;;;4947291;29;20031;-70
2021/05/30 04:48:22;;;;;;;0.98;0.25;;;18.00;71.90;;;;;;4945820;28;20390;-72
2021/05/30 04:51:05;;;;;;;5.25;0.38;;;18.20;72.30;;;;;;4946787;28;20027;-74
2021/05/30 04:53:43;;;;;;;0.57;0.30;;;18.20;70.70;;;;;;4945226;29;20023;-71
2021/05/30 04:56:12;;;;;;;0.32;0.20;;;18.30;70.10;;;;;;4944682;29;20023;-72
2021/05/30 04:58:39;;;;;;;1.30;0.68;;;18.30;71.20;;;;;;4943529;29;20097;-70
2021/05/30 05:01:07;;;;;;;0.52;0.45;;;18.30;71.20;;;;;;4941043;29;20079;-72
2021/05/30 05:03:35;;;;;;;0.28;0.20;;;18.20;70.60;;;;;;4943205;29;20023;-72
2021/05/30 05:06:03;;;;;;;2.10;0.40;;;18.00;70.10;;;;;;4943604;29;20027;-70
2021/05/30 05:08:30;;;;;;;0.68;0.20;;;17.90;70.30;;;;;;4943634;28;20034;-70
2021/05/30 05:10:58;;;;;;;0.63;0.20;;;17.80;72.00;;;;;;4943721;29;20614;-71
2021/05/30 05:13:25;;;;;;;0.52;0.30;;;17.80;72.10;;;;;;4946836;29;20110;-72
2021/05/30 05:15:53;;;;;;;2.83;0.60;;;17.80;72.40;;;;;;4948625;29;20043;-72
2021/05/30 05:18:23;;;;;;;0.73;0.20;;;17.80;72.10;;;;;;4949916;28;20028;-72
2021/05/30 05:20:51;;;;;;;0.93;0.13;;;17.70;73.30;;;;;;4949023;29;21442;-72
2021/05/30 05:23:24;;;;;;;1.10;0.20;;;17.70;73.00;;;;;;4944489;28;20033;-72
2021/05/30 05:25:57;;;;;;;1.27;0.20;;;17.70;73.60;;;;;;4947740;29;20102;-71
2021/05/30 05:28:25;;;;;;;0.65;0.28;;;17.70;73.20;;;;;;4944956;28;20114;-70
2021/05/30 05:30:55;;;;;;;1.02;0.30;;;17.70;73.60;;;;;;4947451;29;20027;-72
2021/05/30 05:33:24;;;;;;;0.82;0.10;;;17.70;73.60;;;;;;4945260;28;20027;-72
2021/05/30 05:35:52;;;;;;;4.60;0.40;;;17.70;74.40;;;;;;4947558;29;20398;-73
2021/05/30 05:38:20;;;;;;;1.00;0.20;;;17.80;73.60;;;;;;4945353;28;20023;-72
2021/05/30 05:40:47;;;;;;;0.10;0.10;;;17.60;73.60;;;;;;4946516;28;20039;-72
2021/05/30 05:43:15;;;;;;;1.75;0.20;;;17.60;74.50;;;;;;4947427;28;20035;-71
2021/05/30 05:45:42;;;;;;;3.08;0.98;;;17.60;74.10;;;;;;4945867;28;20512;-72
2021/05/30 05:48:17;;;;;;;1.30;0.70;;;17.50;73.90;;;;;;4945141;28;20114;-72
2021/05/30 05:50:47;;;;;;;0.65;0.32;;;17.50;73.50;;;;;;4951971;29;20054;-72
2021/05/30 05:53:15;;;;;;;4.15;0.98;;;17.40;74.60;;;;;;4948297;28;20046;-71
2021/05/30 05:55:43;;;;;;;0.82;0.32;;;17.40;74.70;;;;;;4946288;29;20084;-71
2021/05/30 05:58:10;;;;;;;1.52;0.40;;;17.30;74.50;;;;;;4944536;29;20058;-72
2021/05/30 06:00:38;;;;;;;4.07;0.85;;;17.20;75.10;;;;;;4927383;29;20512;-71
2021/05/30 06:03:06;;;;;;;6.10;1.95;;;17.20;75.60;;;;;;4946469;28;20027;-72
2021/05/30 06:05:33;;;;;;;1.38;0.40;;;17.10;74.40;;;;;;4949522;29;20019;-73
2021/05/30 06:08:01;;;;;;;0.98;0.25;;;17.10;74.50;;;;;;4945830;28;20163;-72
2021/05/30 06:10:29;;;;;;;2.17;0.82;;;16.90;74.60;;;;;;4948992;29;20031;-71
2021/05/30 06:12:59;;;;;;;1.35;0.20;;;16.90;75.80;;;;;;4945083;29;20031;-70
2021/05/30 06:15:27;;;;;;;0.22;0.20;;;17.00;75.30;;;;;;4944111;28;20020;-73
2021/05/30 06:18:07;;;;;;;1.23;0.10;;;16.90;75.10;;;;;;4946553;28;20019;-72
2021/05/30 06:20:35;;;;;;;1.52;0.75;;;16.90;76.00;;;;;;4946380;29;20131;-72
2021/05/30 06:23:03;;;;;;;0.30;0.20;;;16.90;75.80;;;;;;4944428;28;20034;-72
2021/05/30 06:25:30;;;;;;;2.90;0.30;;;17.00;76.10;;;;;;4947329;29;20065;-72
2021/05/30 06:27:59;;;;;;;0.95;0.40;;;17.10;75.50;;;;;;4942758;28;20501;-72
2021/05/30 06:30:36;;;;;;;1.33;0.40;;;17.10;75.30;;;;;;4941609;28;20043;-73
2021/05/30 06:33:08;;;;;;;2.08;0.35;;;17.10;75.40;;;;;;4941939;28;20094;-73
2021/05/30 06:35:39;;;;;;;0.93;0.20;;;17.00;75.50;;;;;;4946440;28;20027;-73
2021/05/30 06:38:08;;;;;;;0.57;0.30;;;16.90;75.20;;;;;;4946700;28;20082;-73
2021/05/30 06:40:37;;;;;;;0.65;0.43;;;16.80;75.90;;;;;;4946025;29;20035;-76
2021/05/30 06:43:05;;;;;;;0.22;0.20;;;16.70;76.00;;;;;;4946492;28;20050;-74
2021/05/30 06:45:32;;;;;;;2.05;0.30;;;16.70;76.10;;;;;;4946956;29;20037;-75
2021/05/30 06:48:00;;;;;;;0.60;0.40;;;16.60;76.90;;;;;;4944854;28;20043;-72
2021/05/30 06:50:30;;;;;;;1.17;0.35;;;16.50;77.10;;;;;;4947170;29;20034;-73
2021/05/30 06:52:58;;;;;;;0.88;0.40;;;16.50;77.20;;;;;;4944921;28;20039;-75
2021/05/30 06:55:25;;;;;;;1.85;0.70;;;16.40;77.50;;;;;;4945509;29;20075;-74
2021/05/30 06:57:52;;;;;;;2.10;0.63;;;16.30;77.60;;;;;;4951024;28;20565;-74
2021/05/30 07:00:20;;;;;;;2.38;0.32;;;16.30;78.00;;;;;;4945279;28;20057;-74
2021/05/30 07:02:49;;;;;;;0.98;0.30;;;16.30;78.50;;;;;;4945059;29;20028;-73
2021/05/30 07:05:20;;;;;;;2.33;0.30;;;16.30;78.50;;;;;;4944231;29;20031;-73
2021/05/30 07:07:47;;;;;;;0.90;0.65;;;16.20;78.50;;;;;;4943646;29;20145;-73
2021/05/30 07:10:15;;;;;;;0.85;0.40;;;16.20;78.30;;;;;;4944108;28;20027;-75
2021/05/30 07:12:43;;;;;;;1.27;0.40;;;16.10;78.50;;;;;;4943568;29;20397;-72
2021/05/30 07:15:11;;;;;;;0.63;0.63;;;16.10;79.60;;;;;;4944259;28;20425;-73
2021/05/30 07:17:38;;;;;;;1.25;0.25;;;16.10;79.60;;;;;;4945646;28;20018;-75
2021/05/30 07:20:07;;;;;;;1.55;0.70;;;16.10;79.30;;;;;;4942479;28;20047;-72
2021/05/30 07:22:34;;;;;;;0.40;0.30;;;16.10;79.10;;;;;;4946336;29;20512;-75
2021/05/30 07:25:03;;;;;;;3.88;1.48;;;16.10;79.10;;;;;;4946790;28;20486;-73
2021/05/30 07:27:30;;;;;;;2.28;0.50;;;16.00;78.80;;;;;;4947347;29;20771;-72
2021/05/30 07:29:58;;;;;;;3.03;0.75;;;15.90;79.20;;;;;;4944579;28;20036;-73
2021/05/30 07:32:25;;;;;;;2.03;0.65;;;16.00;79.30;;;;;;4943481;29;20042;-73
2021/05/30 07:34:52;;;;;;;3.38;0.60;;;15.90;79.70;;;;;;4944455;28;20031;-72
2021/05/30 07:37:20;;;;;;;2.10;0.52;;;15.90;80.10;;;;;;4943642;29;20023;-72
2021/05/30 07:39:47;;;;;;;3.28;0.43;;;15.90;79.90;;;;;;4943699;28;20039;-72
2021/05/30 07:42:15;;;;;;;0.90;0.50;;;15.90;80.50;;;;;;4941927;29;20038;-71
2021/05/30 07:44:42;;;;;;;2.28;0.70;;;15.80;80.20;;;;;;4946429;29;20083;-72
2021/05/30 07:47:09;;;;;;;1.45;0.68;;;15.80;80.20;;;;;;4943181;29;20042;-73
2021/05/30 07:49:37;;;;;;;2.42;0.70;;;15.80;80.30;;;;;;4927044;29;20028;-72
2021/05/30 07:52:05;;;;;;;1.15;0.70;;;15.80;81.10;;;;;;4941904;28;20058;-74
2021/05/30 07:54:32;;;;;;;3.08;0.40;;;15.80;81.40;;;;;;4927343;29;20516;-74
2021/05/30 07:57:00;;;;;;;0.95;0.50;;;15.70;81.40;;;;;;4944096;29;20020;-72
2021/05/30 07:59:27;;;;;;;0.80;0.43;;;15.70;80.90;;;;;;4937421;28;20073;-73
2021/05/30 08:01:55;;;;;;;1.58;0.30;;;15.70;80.70;;;;;;4937597;28;20060;-73
2021/05/30 08:04:22;;;;;;;1.40;0.35;;;15.70;81.30;;;;;;4941164;28;20085;-75
2021/05/30 08:06:50;;;;;;;1.00;0.50;;;15.70;81.40;;;;;;4944513;28;20027;-74
2021/05/30 08:09:17;;;;;;;0.93;0.52;;;15.70;81.20;;;;;;4939130;28;20054;-71
2021/05/30 08:11:45;;;;;;;2.47;0.40;;;15.70;81.60;;;;;;4940742;28;20458;-75
2021/05/30 08:14:12;;;;;;;0.70;0.30;;;15.70;81.60;;;;;;4934897;28;20161;-75
2021/05/30 08:16:43;;;;;;;2.35;0.32;;;15.70;81.50;;;;;;4936378;28;20074;-75
2021/05/30 08:19:12;;;;;;;0.85;0.30;;;15.70;81.70;;;;;;4936327;28;20050;-74
2021/05/30 08:21:41;;;;;;;0.93;0.50;;;15.60;81.60;;;;;;4941385;28;20295;-75
2021/05/30 08:24:09;;;;;;;2.70;0.85;;;15.60;81.50;;;;;;4923518;29;20059;-74
2021/05/30 08:26:36;;;;;;;1.48;0.40;;;15.60;81.60;;;;;;4942215;29;20019;-74
2021/05/30 08:29:04;;;;;;;1.00;0.88;;;15.60;81.90;;;;;;4946736;28;20540;-74
2021/05/30 08:31:31;;;;;;;1.55;0.47;;;15.50;81.70;;;;;;4949056;28;20440;-74
2021/05/30 08:33:58;;;;;;;3.78;1.90;;;15.50;82.20;;;;;;4941058;28;20046;-72
2021/05/30 08:36:27;;;;;;;3.17;2.03;;;15.50;81.70;;;;;;4940536;28;20035;-74
2021/05/30 08:38:55;;;;;;;2.60;1.50;;;15.50;82.20;;;;;;4947091;28;20477;-74
2021/05/30 08:41:22;;;;;;;4.45;1.67;;;15.50;82.20;;;;;;4940758;28;20035;-73
2021/05/30 08:43:50;;;;;;;2.60;1.50;;;15.40;81.90;;;;;;4940919;28;21553;-73
2021/05/30 08:46:17;;;;;;;1.88;1.35;;;15.30;81.80;;;;;;4939178;28;20062;-74
2021/05/30 08:48:45;;;;;;;1.42;0.88;;;15.20;82.30;;;;;;4943190;28;21818;-71
2021/05/30 08:51:12;;;;;;;2.67;1.80;;;15.10;82.60;;;;;;4945505;28;20027;-75
2021/05/30 08:53:43;;;;;;;2.40;2.13;;;15.00;83.00;;;;;;4944325;28;20039;-76
2021/05/30 08:56:12;;;;;;;2.03;1.83;;;15.00;83.10;;;;;;4942960;28;20093;-74
2021/05/30 08:58:45;;;;;;;3.88;1.92;;;15.00;83.50;;;;;;4942114;28;20031;-72
2021/05/30 09:01:15;;;;;;;0.93;0.65;;;14.90;83.90;;;;;;4947946;29;20047;-73
2021/05/30 09:04:09;;;;;;;2.03;0.47;;;14.90;84.30;;;;;;4943168;28;20024;-72
2021/05/30 09:06:38;;;;;;;3.13;0.50;;;15.00;84.10;;;;;;4944617;28;20101;-74
2021/05/30 09:09:11;;;;;;;0.88;0.60;;;15.00;84.10;;;;;;4946501;28;20073;-73
2021/05/30 09:11:45;;;;;;;1.40;0.50;;;15.00;84.00;;;;;;4945801;29;20386;-73
2021/05/30 09:14:18;;;;;;;0.32;0.30;;;15.00;84.80;;;;;;4944325;28;20019;-75
2021/05/30 09:17:00;;;;;;;2.65;0.68;;;15.00;84.00;;;;;;4943948;28;22028;-72
2021/05/30 09:19:55;;;;;;;1.55;0.50;;;15.00;84.00;;;;;;4934610;28;20039;-72
2021/05/30 09:22:43;;;;;;;3.45;0.82;;;15.00;84.10;;;;;;4923405;28;20059;-73
2021/05/30 09:25:12;;;;;;;3.03;1.02;;;14.90;84.20;;;;;;4939404;28;20035;-74
2021/05/30 09:27:54;;;;;;;1.85;1.15;;;14.90;84.50;;;;;;4942687;28;20035;-73
2021/05/30 09:30:26;;;;;;;2.97;0.90;;;14.90;84.60;;;;;;4935725;28;20094;-73
2021/05/30 09:33:08;;;;;;;1.92;0.90;;;14.90;84.90;;;;;;4942168;28;20375;-72
2021/05/30 09:35:38;;;;;;;2.83;0.60;;;14.80;85.30;;;;;;4933906;28;20039;-72
2021/05/30 09:38:09;;;;;;;2.58;0.95;;;14.80;85.60;;;;;;4937559;28;20043;-73
2021/05/30 09:40:41;;;;;;;1.33;0.70;;;14.80;85.00;;;;;;4947526;28;20516;-72
2021/05/30 09:43:15;;;;;;;3.30;1.05;;;14.70;85.30;;;;;;4943811;28;20023;-73
2021/05/30 09:45:56;;;;;;;2.47;0.80;;;14.60;85.60;;;;;;4942150;28;20031;-71
2021/05/30 09:48:24;;;;;;;3.05;1.17;;;14.60;86.10;;;;;;4944254;29;20027;-74
2021/05/30 09:51:04;;;;;;;2.17;0.88;;;14.50;86.10;;;;;;4941988;29;20039;-73
2021/05/30 09:53:56;;;;;;;1.95;0.70;;;14.50;86.20;;;;;;4943295;28;20026;-72
2021/05/30 09:56:38;;;;;;;1.60;0.90;;;14.50;85.90;;;;;;4934076;29;20043;-71
2021/05/30 09:59:10;;;;;;;2.67;1.38;;;14.40;85.90;;;;;;4945234;28;20058;-72
2021/05/30 10:02:00;;;;;;;2.22;0.85;;;14.40;85.80;;;;;;4946656;28;20490;-75
2021/05/30 10:04:33;;;;;;;2.47;1.30;;;14.40;86.00;;;;;;4948269;28;20477;-75
2021/05/30 10:07:05;;;;;;;1.67;0.98;;;14.40;86.30;;;;;;4944975;28;20394;-74
2021/05/30 10:09:33;;;;;;;8.32;1.27;;;14.40;86.30;;;;;;4948220;28;20038;-74
2021/05/30 10:12:00;;;;;;;1.00;0.90;;;14.40;86.60;;;;;;4949192;28;20038;-72
2021/05/30 10:14:28;;;;;;;0.60;0.43;;;14.30;86.10;;;;;;4946199;29;20061;-74
2021/05/30 10:16:56;;;;;;;1.70;0.40;;;14.30;86.20;;;;;;4945063;28;22245;-77
2021/05/30 10:19:37;;;;;;;1.42;0.57;;;14.30;86.20;;;;;;4944819;28;20561;-73
2021/05/30 10:22:05;;;;;;;0.52;0.40;;;14.30;86.20;;;;;;4942055;28;20062;-75
2021/05/30 10:24:33;;;;;;;0.82;0.50;;;14.20;86.50;;;;;;4943964;28;20038;-73
2021/05/30 10:27:26;;;;;;;1.48;0.47;;;14.20;86.70;;;;;;4942535;28;20050;-76
2021/05/30 10:30:14;;;;;;;2.10;0.52;;;14.20;87.20;;;;;;4942846;28;20039;-73
2021/05/30 10:33:08;;;;;;;3.30;0.57;;;14.20;87.20;;;;;;4940450;28;20031;-74
2021/05/30 10:35:35;;;;;;;1.38;0.60;;;14.20;87.00;;;;;;4932622;28;20031;-75
2021/05/30 10:38:03;;;;;;;2.22;0.70;;;14.10;87.40;;;;;;4934237;28;20031;-73
2021/05/30 10:40:33;;;;;;;3.22;0.88;;;14.00;87.70;;;;;;4944711;28;20039;-73
2021/05/30 10:43:10;;;;;;;1.00;0.63;;;14.00;87.80;;;;;;4939373;28;20038;-73
2021/05/30 10:45:44;;;;;;;2.55;1.27;;;14.00;87.90;;;;;;4945626;29;20031;-73
2021/05/30 10:48:17;;;;;;;1.30;0.70;;;14.00;88.10;;;;;;4939795;28;20051;-74
2021/05/30 10:51:13;;;;;;;3.25;0.70;;;13.90;88.40;;;;;;4942267;28;20035;-74
2021/05/30 10:53:46;;;;;;;1.13;0.50;;;14.00;88.40;;;;;;4944377;29;20025;-73
2021/05/30 10:56:37;;;;;;;1.05;0.65;;;14.00;88.10;;;;;;4939057;28;20035;-76
2021/05/30 10:59:04;;;;;;;2.28;0.95;;;13.90;88.40;;;;;;4936237;28;20074;-76
2021/05/30 11:01:35;;;;;;;1.10;0.70;;;13.90;88.60;;;;;;4935394;28;20046;-74
2021/05/30 11:04:38;;;;;;;3.40;1.08;;;13.80;89.00;;;;;;4940952;28;20020;-74
2021/05/30 11:07:27;;;;;;;2.90;0.70;;;13.90;89.30;;;;;;4882463;29;20037;-73
2021/05/30 11:09:58;;;;;;;3.40;0.70;;;13.80;89.60;;;;;;4922314;28;20039;-74
2021/05/30 11:12:34;;;;;;;1.85;0.57;;;13.70;90.10;;;;;;4933099;28;21000;-73
2021/05/30 11:15:11;;;;;;;;;;;13.70;90.20;;;;;;4945592;29;20039;-73
2021/05/30 11:17:39;;;;;;;1.15;0.50;;;13.60;90.30;;;;;;4934572;28;19914;-72
2021/05/30 11:20:09;;;;;;;0.85;0.60;;;13.60;90.70;;;;;;4933214;28;20041;-75
2021/05/30 11:22:49;;;;;;;0.85;0.47;;;13.50;90.60;;;;;;4932413;28;20035;-76
2021/05/30 11:25:19;;;;;;;1.05;0.40;;;13.50;90.60;;;;;;4933461;28;20039;-74
2021/05/30 11:28:06;;;;;;;1.30;0.73;;;13.50;90.60;;;;;;4932937;28;20034;-74
2021/05/30 11:30:42;;;;;;;1.88;0.47;;;13.30;90.90;;;;;;4937840;28;20023;-76
2021/05/30 11:33:12;;;;;;;1.52;0.73;;;13.20;91.00;;;;;;4935884;28;20122;-75
2021/05/30 11:35:41;;;;;;;3.35;0.57;;;13.20;91.00;;;;;;4939688;28;20038;-76
2021/05/30 11:38:08;;;;;;;1.48;0.57;;;13.10;90.90;;;;;;4943306;29;20031;-72
2021/05/30 11:40:38;;;;;;;3.53;0.55;;;13.00;91.00;;;;;;4939674;28;20046;-73
2021/05/30 11:43:19;;;;;;;2.08;0.90;;;12.90;91.20;;;;;;4937532;28;20415;-74
2021/05/30 11:45:48;;;;;;;1.83;0.63;;;12.80;91.30;;;;;;4940234;28;20070;-72
2021/05/30 11:48:20;;;;;;;1.10;0.50;;;12.70;91.40;;;;;;4938254;28;20070;-74
2021/05/30 11:50:55;;;;;;;1.58;0.90;;;12.60;91.40;;;;;;4941701;28;20842;-72
2021/05/30 11:53:34;;;;;;;1.55;0.70;;;12.50;91.30;;;;;;4937410;28;20051;-74
2021/05/30 11:56:04;;;;;;;2.60;0.80;;;12.50;91.40;;;;;;4931168;28;20070;-75
2021/05/30 11:58:33;;;;;;;1.25;0.38;;;12.40;91.60;;;;;;4932272;28;20125;-73
2021/05/30 12:01:02;;;;;;;4.68;0.47;;;12.30;91.70;;;;;;4930975;28;20052;-73
2021/05/30 12:03:30;;;;;;;1.38;0.47;;;12.30;91.70;;;;;;4936879;28;20102;-72
2021/05/30 12:06:03;;;;;;;0.45;0.25;;;12.20;91.70;;;;;;4942303;28;20493;-72
2021/05/30 12:08:31;;;;;;;2.20;0.30;;;12.20;91.70;;;;;;4946777;29;20055;-74
2021/05/30 12:11:00;;;;;;;0.60;0.32;;;12.20;91.60;;;;;;4942297;29;20027;-73
2021/05/30 12:13:33;;;;;;;0.80;0.40;;;12.20;91.60;;;;;;4937991;28;20035;-72
2021/05/30 12:16:15;;;;;;;1.60;0.85;;;12.10;91.70;;;;;;4939169;28;20047;-73
2021/05/30 12:18:57;;;;;;;0.40;0.40;;;12.00;91.60;;;;;;4942444;28;20220;-71
2021/05/30 12:21:26;;;;;;;1.02;0.43;;;11.90;91.80;;;;;;4936057;28;20375;-73
2021/05/30 12:23:54;;;;;;;0.98;0.40;;;11.80;91.90;;;;;;4934107;28;20065;-73
2021/05/30 12:26:23;;;;;;;2.03;0.98;;;11.80;92.20;;;;;;4937934;28;20985;-73
2021/05/30 12:28:50;;;;;;;3.63;2.15;;;11.70;92.40;;;;;;4934096;29;20144;-71
2021/05/30 12:31:21;;;;;;;6.50;1.83;;;11.70;92.40;;;;;;4931971;28;20333;-71
2021/05/30 12:33:57;;;;;;;2.97;1.23;;;11.60;92.60;;;;;;4936847;28;20470;-73
2021/05/30 12:36:36;;;;;;;4.95;2.17;;;11.60;92.60;;;;;;4937982;28;20126;-70
2021/05/30 12:39:05;;;;;;;4.20;1.20;;;11.60;92.70;;;;;;4938585;29;20379;-72
2021/05/30 12:41:49;;;;;;;3.78;1.13;;;11.50;92.80;;;;;;4943597;29;20034;-74
2021/05/30 12:44:20;;;;;;;4.82;1.77;;;11.40;92.90;;;;;;4942339;29;20381;-72
2021/05/30 12:47:09;;;;;;;2.67;0.80;;;11.30;93.20;;;;;;4944231;29;20059;-71
2021/05/30 12:49:38;;;;;;;2.78;1.00;;;11.30;93.20;;;;;;4939240;28;20028;-72
2021/05/30 12:52:16;;;;;;;1.35;0.95;;;11.30;93.30;;;;;;4946972;28;20483;-70
2021/05/30 12:54:55;;;;;;;1.27;1.17;;;11.30;93.30;;;;;;4940306;28;20393;-71
2021/05/30 12:57:38;;;;;;;1.20;0.65;;;11.20;93.60;;;;;;4949361;29;20030;-71
2021/05/30 13:00:09;;;;;;;1.70;0.93;;;11.20;93.60;;;;;;4946620;29;20079;-73
2021/05/30 13:02:37;;;;;;;1.48;0.80;;;11.10;93.70;;;;;;4944442;29;20102;-73
2021/05/30 13:05:06;;;;;;;1.38;0.70;;;11.10;93.60;;;;;;4945451;29;20031;-73
2021/05/30 13:07:36;;;;;;;2.33;0.40;;;11.10;93.80;;;;;;4946349;29;20393;-73